Time;durP1;ratioP1;P1;durP2;ratioP2;P2;SDS_P1;SDS_P2;PMS_P1;PMS_P2;Temp;Humidity;BMP_temperature;BMP_pressure;BME280_temperature;BME280_humidity;BME280_pressure;Samples;Min_cycle;Max_cycle;Signal;HPM_P1;HPM_P2
2022/09/30 00:01:44;;;;;;;8.90;3.63;;;9.40;94.50;;;;;;4972171;28;20037;-74
2022/09/30 00:04:18;;;;;;;5.90;3.95;;;9.40;94.50;;;;;;4967735;28;20046;-73
2022/09/30 00:06:45;;;;;;;4.57;3.55;;;9.40;94.50;;;;;;4962737;28;20479;-73
2022/09/30 00:09:11;;;;;;;5.13;3.33;;;9.40;94.50;;;;;;4971626;28;20038;-73
2022/09/30 00:11:38;;;;;;;4.22;3.30;;;9.40;94.50;;;;;;4970476;28;20121;-73
2022/09/30 00:14:07;;;;;;;5.78;3.60;;;9.40;94.30;;;;;;4965679;28;20035;-73
2022/09/30 00:16:36;;;;;;;4.80;3.47;;;9.30;94.40;;;;;;4970806;28;20034;-73
2022/09/30 00:19:05;;;;;;;5.10;3.38;;;9.30;94.40;;;;;;4968200;28;20046;-73
2022/09/30 00:21:34;;;;;;;5.18;3.55;;;9.30;94.30;;;;;;4967625;28;20122;-73
2022/09/30 00:24:01;;;;;;;5.07;3.40;;;9.30;94.20;;;;;;4972988;28;20122;-73
2022/09/30 00:26:26;;;;;;;6.25;2.92;;;9.30;94.20;;;;;;4977823;28;20049;-73
2022/09/30 00:28:55;;;;;;;4.95;3.40;;;9.20;94.30;;;;;;4965454;28;20038;-73
2022/09/30 00:31:23;;;;;;;5.22;3.58;;;9.20;94.30;;;;;;4972928;28;20454;-73
2022/09/30 00:34:07;;;;;;;4.63;3.70;;;9.20;94.30;;;;;;4967291;28;20056;-73
2022/09/30 00:36:51;;;;;;;5.68;3.70;;;9.20;94.40;;;;;;4964338;28;20041;-73
2022/09/30 00:39:23;;;;;;;5.47;3.85;;;9.10;94.50;;;;;;4970066;28;20794;-73
2022/09/30 00:41:52;;;;;;;5.50;3.40;;;9.10;94.60;;;;;;4962704;28;20042;-73
2022/09/30 00:44:42;;;;;;;4.90;3.50;;;9.10;94.50;;;;;;4966473;28;20041;-73
2022/09/30 00:47:44;;;;;;;4.88;3.40;;;9.10;94.40;;;;;;4988118;28;20065;-73
2022/09/30 00:50:25;;;;;;;5.65;4.00;;;9.10;94.30;;;;;;4953890;28;20039;-71
2022/09/30 00:53:21;;;;;;;5.03;3.70;;;9.10;94.20;;;;;;4966139;28;20038;-71
2022/09/30 00:55:52;;;;;;;5.40;4.18;;;9.00;94.20;;;;;;4961320;28;20271;-73
2022/09/30 00:58:30;;;;;;;7.15;4.45;;;9.00;94.10;;;;;;4964961;28;20039;-73
2022/09/30 01:00:58;;;;;;;5.38;3.85;;;8.90;94.10;;;;;;4972944;28;20502;-73
2022/09/30 01:03:24;;;;;;;5.35;3.90;;;8.90;94.10;;;;;;4977659;28;20065;-73
2022/09/30 01:05:51;;;;;;;6.40;4.50;;;8.90;94.20;;;;;;4972184;28;20195;-72
2022/09/30 01:08:19;;;;;;;5.15;3.83;;;8.90;94.30;;;;;;4974453;28;20493;-73
2022/09/30 01:10:45;;;;;;;5.70;4.03;;;8.90;94.50;;;;;;4967693;28;20031;-72
2022/09/30 01:13:13;;;;;;;6.28;4.47;;;8.90;94.60;;;;;;4966736;28;20042;-73
2022/09/30 01:15:56;;;;;;;5.05;3.90;;;8.80;94.70;;;;;;4972192;28;20026;-73
2022/09/30 01:18:31;;;;;;;6.22;4.45;;;8.90;94.80;;;;;;4961668;28;20146;-73
2022/09/30 01:21:32;;;;;;;7.22;4.25;;;8.90;94.80;;;;;;4973961;28;20797;-73
2022/09/30 01:24:12;;;;;;;6.45;4.45;;;8.90;94.80;;;;;;4973523;28;20061;-72
2022/09/30 01:27:00;;;;;;;7.38;4.07;;;8.90;94.70;;;;;;4969125;28;20034;-72
2022/09/30 01:29:44;;;;;;;6.90;4.53;;;8.90;94.70;;;;;;4968341;28;20089;-72
2022/09/30 01:32:28;;;;;;;6.50;4.25;;;8.90;94.60;;;;;;4965662;28;20479;-72
2022/09/30 01:35:22;;;;;;;5.68;3.88;;;8.80;94.50;;;;;;4967134;28;20022;-72
2022/09/30 01:38:14;;;;;;;6.30;4.38;;;8.80;94.60;;;;;;4971134;28;20109;-71
2022/09/30 01:40:49;;;;;;;6.40;4.63;;;8.80;94.70;;;;;;4961499;28;20502;-72
2022/09/30 01:43:15;;;;;;;5.40;4.15;;;8.80;94.60;;;;;;4969179;28;20042;-72
2022/09/30 01:46:01;;;;;;;5.75;4.18;;;8.70;94.60;;;;;;4973408;28;20182;-72
2022/09/30 01:48:36;;;;;;;;;;;8.70;94.70;;;;;;4963807;28;20035;-72
2022/09/30 01:51:16;;;;;;;8.35;3.83;;;8.70;94.80;;;;;;4977013;28;19928;-72
2022/09/30 01:53:45;;;;;;;4.50;3.90;;;8.70;94.80;;;;;;4971060;28;20030;-72
2022/09/30 01:56:19;;;;;;;5.15;3.97;;;8.70;94.80;;;;;;4969262;28;20137;-72
2022/09/30 01:58:51;;;;;;;5.82;3.92;;;8.70;94.90;;;;;;4971919;28;20834;-72
2022/09/30 02:01:30;;;;;;;5.97;4.13;;;8.70;94.90;;;;;;4974799;28;20034;-72
2022/09/30 02:04:02;;;;;;;10.43;4.22;;;8.70;94.70;;;;;;4968527;28;20066;-71
2022/09/30 02:06:36;;;;;;;4.90;3.72;;;8.70;94.70;;;;;;4969274;28;20132;-72
2022/09/30 02:09:15;;;;;;;5.25;4.03;;;8.70;94.80;;;;;;4962009;28;20034;-72
2022/09/30 02:11:41;;;;;;;5.72;3.92;;;8.70;94.90;;;;;;4982189;28;20034;-71
2022/09/30 02:14:36;;;;;;;6.97;4.00;;;8.70;95.20;;;;;;4970385;28;20038;-71
2022/09/30 02:17:04;;;;;;;5.05;4.10;;;8.70;94.80;;;;;;4963409;28;20474;-71
2022/09/30 02:19:49;;;;;;;4.53;3.88;;;8.70;94.70;;;;;;4967753;28;20085;-72
2022/09/30 02:22:20;;;;;;;7.13;4.15;;;8.60;94.60;;;;;;4973389;28;20034;-72
2022/09/30 02:24:54;;;;;;;7.07;4.10;;;8.60;94.80;;;;;;4963210;28;20030;-72
2022/09/30 02:27:28;;;;;;;5.78;4.65;;;8.60;94.70;;;;;;4965923;28;20042;-72
2022/09/30 02:29:57;;;;;;;6.38;4.90;;;8.50;94.50;;;;;;4967947;28;20372;-72
2022/09/30 02:32:29;;;;;;;7.60;4.18;;;8.50;94.30;;;;;;4971119;28;20141;-72
2022/09/30 02:35:08;;;;;;;6.70;4.53;;;8.40;94.30;;;;;;4972310;28;20035;-72
2022/09/30 02:37:42;;;;;;;9.65;4.47;;;8.40;94.10;;;;;;4971638;28;20082;-72
2022/09/30 02:40:11;;;;;;;6.50;4.13;;;8.40;94.00;;;;;;4962288;28;20097;-72
2022/09/30 02:42:39;;;;;;;6.38;4.20;;;8.30;94.00;;;;;;4970588;28;20088;-72
2022/09/30 02:45:09;;;;;;;6.47;4.25;;;8.20;93.80;;;;;;4966283;28;20070;-72
2022/09/30 02:48:09;;;;;;;5.65;4.07;;;8.20;93.80;;;;;;4962715;28;20088;-72
2022/09/30 02:50:50;;;;;;;6.90;4.53;;;8.10;93.90;;;;;;4969555;28;20509;-72
2022/09/30 02:53:24;;;;;;;8.50;4.93;;;8.10;94.10;;;;;;4960712;28;20038;-72
2022/09/30 02:56:02;;;;;;;5.82;4.50;;;8.10;94.30;;;;;;4968113;28;20030;-72
2022/09/30 02:58:28;;;;;;;6.78;4.80;;;8.10;94.40;;;;;;4970677;28;20031;-71
2022/09/30 03:00:55;;;;;;;7.53;5.35;;;8.10;94.50;;;;;;4966071;28;20038;-72
2022/09/30 03:03:30;;;;;;;6.45;4.40;;;8.10;94.60;;;;;;4969245;28;20039;-72
2022/09/30 03:05:56;;;;;;;7.07;4.57;;;8.20;94.80;;;;;;4967015;28;20419;-72
2022/09/30 03:08:21;;;;;;;9.23;4.68;;;8.10;94.90;;;;;;4964249;28;20034;-72
2022/09/30 03:10:49;;;;;;;6.00;4.50;;;8.10;95.10;;;;;;4973198;28;20644;-72
2022/09/30 03:13:24;;;;;;;4.97;4.47;;;8.10;95.20;;;;;;4969737;28;20042;-71
2022/09/30 03:16:11;;;;;;;6.22;4.28;;;8.20;95.30;;;;;;4968636;28;20046;-72
2022/09/30 03:19:00;;;;;;;6.30;4.38;;;8.20;95.30;;;;;;4967502;28;20065;-72
2022/09/30 03:21:43;;;;;;;5.20;3.95;;;8.20;95.30;;;;;;4965207;28;20511;-72
2022/09/30 03:24:28;;;;;;;7.85;4.40;;;8.20;95.30;;;;;;4965737;28;20043;-72
2022/09/30 03:27:04;;;;;;;6.03;3.95;;;8.20;95.40;;;;;;4966371;28;20090;-72
2022/09/30 03:29:38;;;;;;;5.72;3.90;;;8.20;95.30;;;;;;4962654;28;20035;-72
2022/09/30 03:32:44;;;;;;;4.90;3.90;;;8.20;95.60;;;;;;4972755;28;20062;-72
2022/09/30 03:35:18;;;;;;;7.20;4.25;;;8.20;95.30;;;;;;4973690;28;20026;-72
2022/09/30 03:38:02;;;;;;;5.60;4.28;;;8.20;95.20;;;;;;4979088;28;20034;-72
2022/09/30 03:40:46;;;;;;;6.88;4.82;;;8.20;95.20;;;;;;4971313;28;20046;-71
2022/09/30 03:43:30;;;;;;;7.47;4.47;;;8.20;94.90;;;;;;4967341;28;20046;-72
2022/09/30 03:46:05;;;;;;;8.30;5.38;;;8.20;94.70;;;;;;4965773;28;20035;-72
2022/09/30 03:48:33;;;;;;;6.72;4.40;;;8.10;94.70;;;;;;4970840;28;20093;-72
2022/09/30 03:50:59;;;;;;;4.90;3.85;;;8.10;94.70;;;;;;4966913;28;20145;-72
2022/09/30 03:53:27;;;;;;;5.47;4.03;;;8.10;94.90;;;;;;4967595;28;20549;-71
2022/09/30 03:55:53;;;;;;;7.00;4.60;;;8.10;95.00;;;;;;4974864;28;20042;-72
2022/09/30 03:58:22;;;;;;;12.02;5.15;;;8.10;95.10;;;;;;4965311;28;20031;-71
2022/09/30 04:00:53;;;;;;;8.55;4.65;;;8.10;95.00;;;;;;4968460;28;20026;-72
2022/09/30 04:03:20;;;;;;;6.50;4.53;;;8.20;95.10;;;;;;4968365;28;20031;-72
2022/09/30 04:05:47;;;;;;;6.38;4.38;;;8.10;95.10;;;;;;4964681;28;20140;-72
2022/09/30 04:08:13;;;;;;;6.05;4.65;;;8.10;95.10;;;;;;4969987;28;20033;-71
2022/09/30 04:10:40;;;;;;;7.72;4.40;;;8.20;95.00;;;;;;4971300;28;20768;-72
2022/09/30 04:13:07;;;;;;;7.32;4.97;;;8.10;95.00;;;;;;4972627;28;20488;-71
2022/09/30 04:15:34;;;;;;;5.90;4.53;;;8.10;94.50;;;;;;4968180;28;20050;-72
2022/09/30 04:18:00;;;;;;;7.50;4.45;;;8.10;94.20;;;;;;4971341;28;20509;-72
2022/09/30 04:20:25;;;;;;;6.32;4.28;;;8.00;94.20;;;;;;4968643;28;20127;-72
2022/09/30 04:22:51;;;;;;;6.47;4.65;;;8.00;94.20;;;;;;4971726;28;20034;-72
2022/09/30 04:25:17;;;;;;;6.05;4.47;;;8.00;94.30;;;;;;4970642;28;20462;-72
2022/09/30 04:27:43;;;;;;;8.05;4.65;;;7.90;94.30;;;;;;4965451;28;20026;-72
2022/09/30 04:30:09;;;;;;;12.63;5.20;;;7.90;94.30;;;;;;4968774;28;20812;-72
2022/09/30 04:32:35;;;;;;;8.40;5.35;;;7.80;94.30;;;;;;4972688;28;20066;-72
2022/09/30 04:35:00;;;;;;;7.40;5.20;;;7.80;94.30;;;;;;4971539;28;20146;-72
2022/09/30 04:37:26;;;;;;;8.90;5.35;;;7.80;94.50;;;;;;4967109;28;20106;-72
2022/09/30 04:39:52;;;;;;;8.80;5.97;;;7.80;94.70;;;;;;4969718;28;20035;-72
2022/09/30 04:42:18;;;;;;;8.45;5.55;;;7.80;94.70;;;;;;4964565;28;20613;-72
2022/09/30 04:44:43;;;;;;;8.05;5.57;;;7.80;94.60;;;;;;4973505;28;20678;-71
2022/09/30 04:47:09;;;;;;;8.48;5.75;;;7.80;94.60;;;;;;4967019;28;20038;-71
2022/09/30 04:49:35;;;;;;;7.78;5.95;;;7.80;94.70;;;;;;4974967;28;20034;-72
2022/09/30 04:52:01;;;;;;;10.25;6.35;;;7.80;94.70;;;;;;4968542;28;20041;-71
2022/09/30 04:54:26;;;;;;;9.10;6.43;;;7.80;94.70;;;;;;4970595;28;20811;-71
2022/09/30 04:56:52;;;;;;;8.70;5.75;;;7.80;94.70;;;;;;4974820;28;20045;-72
2022/09/30 04:59:18;;;;;;;9.50;6.65;;;7.80;94.70;;;;;;4966388;28;20027;-72
2022/09/30 05:01:43;;;;;;;9.05;6.45;;;7.80;94.60;;;;;;4970237;28;20038;-72
2022/09/30 05:04:11;;;;;;;7.57;5.47;;;7.80;94.80;;;;;;4971848;28;20620;-72
2022/09/30 05:06:39;;;;;;;7.03;5.35;;;7.80;95.00;;;;;;4964587;28;20031;-72
2022/09/30 05:09:05;;;;;;;10.00;6.05;;;7.80;95.20;;;;;;4971649;28;20516;-72
2022/09/30 05:11:31;;;;;;;8.93;5.30;;;7.80;95.40;;;;;;4975495;28;20026;-72
2022/09/30 05:13:58;;;;;;;8.18;5.63;;;7.80;95.40;;;;;;4971735;28;20030;-72
2022/09/30 05:16:26;;;;;;;8.80;5.60;;;7.90;95.40;;;;;;4971698;28;20035;-72
2022/09/30 05:18:53;;;;;;;6.45;5.15;;;7.90;95.40;;;;;;4969706;28;20042;-72
2022/09/30 05:21:19;;;;;;;6.95;5.07;;;7.90;95.30;;;;;;4974145;28;20058;-72
2022/09/30 05:23:45;;;;;;;7.70;5.78;;;7.90;95.60;;;;;;4972645;28;20404;-72
2022/09/30 05:26:11;;;;;;;7.60;5.78;;;7.90;95.30;;;;;;4960174;28;20054;-72
2022/09/30 05:28:37;;;;;;;13.88;6.07;;;7.90;95.10;;;;;;4965023;28;20639;-72
2022/09/30 05:31:05;;;;;;;8.15;5.72;;;7.90;95.00;;;;;;4973304;28;20045;-72
2022/09/30 05:33:31;;;;;;;9.88;6.15;;;7.90;95.20;;;;;;4962096;28;20202;-72
2022/09/30 05:36:05;;;;;;;7.93;5.57;;;7.90;95.10;;;;;;4970244;28;20042;-72
2022/09/30 05:38:31;;;;;;;8.32;5.88;;;7.90;94.70;;;;;;4968788;28;20027;-72
2022/09/30 05:40:57;;;;;;;12.52;5.28;;;7.90;94.50;;;;;;4963885;28;20039;-72
2022/09/30 05:43:23;;;;;;;8.48;5.72;;;7.80;94.60;;;;;;4975513;28;20399;-71
2022/09/30 05:45:53;;;;;;;10.23;5.78;;;7.80;94.70;;;;;;4967647;28;20034;-72
2022/09/30 05:48:19;;;;;;;8.38;5.63;;;7.80;95.00;;;;;;4966867;28;20446;-71
2022/09/30 05:50:51;;;;;;;10.02;5.63;;;7.80;95.20;;;;;;4971407;28;20121;-72
2022/09/30 05:53:17;;;;;;;8.25;6.28;;;7.80;95.20;;;;;;4970940;28;20065;-72
2022/09/30 05:55:47;;;;;;;8.90;5.40;;;7.90;95.20;;;;;;4970078;28;20058;-72
2022/09/30 05:58:16;;;;;;;10.27;6.40;;;7.80;95.10;;;;;;4969975;28;20045;-71
2022/09/30 06:00:44;;;;;;;7.32;5.65;;;7.90;95.20;;;;;;4968768;28;20032;-72
2022/09/30 06:03:10;;;;;;;7.85;5.38;;;7.90;95.40;;;;;;4969805;28;20145;-72
2022/09/30 06:05:36;;;;;;;8.60;5.72;;;8.00;95.50;;;;;;4971542;28;20054;-72
2022/09/30 06:08:03;;;;;;;8.82;6.15;;;8.00;95.50;;;;;;4967152;28;20050;-72
2022/09/30 06:10:29;;;;;;;10.52;6.55;;;8.10;95.50;;;;;;4964974;28;20603;-72
2022/09/30 06:12:57;;;;;;;9.02;6.40;;;8.10;95.50;;;;;;4972581;28;20073;-72
2022/09/30 06:15:24;;;;;;;7.32;5.57;;;8.10;95.60;;;;;;4968137;28;20042;-71
2022/09/30 06:17:53;;;;;;;7.28;5.95;;;8.20;95.60;;;;;;4969697;28;20849;-72
2022/09/30 06:20:19;;;;;;;8.15;5.60;;;8.20;95.60;;;;;;4971225;28;20097;-72
2022/09/30 06:22:45;;;;;;;9.52;6.10;;;8.20;95.50;;;;;;4973153;28;20700;-72
2022/09/30 06:25:13;;;;;;;9.98;6.63;;;8.20;95.50;;;;;;4966035;28;20070;-72
2022/09/30 06:27:42;;;;;;;11.48;6.53;;;8.30;95.60;;;;;;4967320;28;20038;-72
2022/09/30 06:30:09;;;;;;;12.38;6.40;;;8.40;95.50;;;;;;4969308;28;20038;-73
2022/09/30 06:32:35;;;;;;;8.82;5.90;;;8.40;95.40;;;;;;4964374;28;20034;-72
2022/09/30 06:35:02;;;;;;;11.15;6.47;;;8.50;95.50;;;;;;4968052;28;20467;-72
2022/09/30 06:37:28;;;;;;;8.88;6.07;;;8.50;95.60;;;;;;4968329;28;20389;-73
2022/09/30 06:39:54;;;;;;;9.50;6.55;;;8.60;95.60;;;;;;4971015;28;20026;-72
2022/09/30 06:42:22;;;;;;;9.80;6.90;;;8.60;95.60;;;;;;4967868;28;20375;-72
2022/09/30 06:44:50;;;;;;;9.32;6.22;;;8.70;95.60;;;;;;4965645;28;20045;-72
2022/09/30 06:47:16;;;;;;;8.18;6.18;;;8.80;95.60;;;;;;4967127;28;20039;-72
2022/09/30 06:49:42;;;;;;;13.05;7.47;;;8.90;95.60;;;;;;4970752;28;20034;-72
2022/09/30 06:52:11;;;;;;;11.02;6.53;;;8.90;95.60;;;;;;4967486;28;20042;-73
2022/09/30 06:54:41;;;;;;;11.60;6.70;;;9.00;95.50;;;;;;4966268;28;20102;-72
2022/09/30 06:57:07;;;;;;;10.20;7.00;;;9.10;95.60;;;;;;4969712;28;20035;-72
2022/09/30 06:59:33;;;;;;;10.75;7.13;;;9.20;95.60;;;;;;4970323;28;20031;-72
2022/09/30 07:01:58;;;;;;;10.20;6.72;;;9.30;95.70;;;;;;4963103;28;20388;-73
2022/09/30 07:04:24;;;;;;;8.68;6.38;;;9.40;95.60;;;;;;4968344;28;20030;-72
2022/09/30 07:06:50;;;;;;;9.18;6.32;;;9.50;95.50;;;;;;4968294;28;20047;-72
2022/09/30 07:09:16;;;;;;;7.38;5.85;;;9.50;95.50;;;;;;4967344;28;20056;-72
2022/09/30 07:11:42;;;;;;;9.73;6.57;;;9.70;95.70;;;;;;4967276;28;20045;-72
2022/09/30 07:14:09;;;;;;;10.10;6.63;;;10.00;96.30;;;;;;4968998;28;20038;-73
2022/09/30 07:16:35;;;;;;;8.98;6.85;;;10.40;95.90;;;;;;4976325;28;20469;-73
2022/09/30 07:19:02;;;;;;;9.15;6.72;;;11.00;95.30;;;;;;4980018;28;20502;-72
2022/09/30 07:21:30;;;;;;;7.97;6.10;;;11.70;93.90;;;;;;4975130;28;20037;-72
2022/09/30 07:23:57;;;;;;;6.85;5.38;;;12.30;92.40;;;;;;4969768;28;20042;-72
2022/09/30 07:26:24;;;;;;;10.35;5.60;;;12.60;91.30;;;;;;4968874;28;20077;-73
2022/09/30 07:28:51;;;;;;;5.82;4.30;;;12.90;90.70;;;;;;4972610;28;20254;-73
2022/09/30 07:31:19;;;;;;;8.68;6.10;;;13.00;89.90;;;;;;4972725;28;20108;-72
2022/09/30 07:33:47;;;;;;;8.48;5.75;;;12.90;89.00;;;;;;4969318;28;20038;-72
2022/09/30 07:36:17;;;;;;;6.55;5.10;;;12.80;89.30;;;;;;4966057;28;20187;-72
2022/09/30 07:38:45;;;;;;;6.85;4.88;;;12.70;89.40;;;;;;4966381;28;20097;-72
2022/09/30 07:41:17;;;;;;;7.18;5.00;;;12.50;89.90;;;;;;4965345;28;20031;-73
2022/09/30 07:43:44;;;;;;;7.88;5.65;;;12.40;90.30;;;;;;4962988;28;20109;-72
2022/09/30 07:46:13;;;;;;;8.38;5.65;;;12.30;90.50;;;;;;4968365;28;20042;-79
2022/09/30 07:48:46;;;;;;;6.70;5.13;;;12.30;90.80;;;;;;4967177;28;20033;-77
2022/09/30 07:51:14;;;;;;;7.28;5.75;;;12.20;90.90;;;;;;4961873;28;20042;-76
2022/09/30 07:53:42;;;;;;;6.70;4.47;;;12.20;91.10;;;;;;4960676;28;20034;-76
2022/09/30 07:56:09;;;;;;;9.02;5.85;;;12.10;91.30;;;;;;4964854;28;20495;-76
2022/09/30 07:58:35;;;;;;;7.90;5.90;;;12.10;91.40;;;;;;4972758;28;20828;-76
2022/09/30 08:01:02;;;;;;;9.13;5.07;;;12.10;91.40;;;;;;4974542;28;20034;-70
2022/09/30 08:03:28;;;;;;;8.23;5.93;;;12.10;91.50;;;;;;4968220;28;20031;-69
2022/09/30 08:05:54;;;;;;;8.27;6.20;;;12.20;91.50;;;;;;4967378;28;20522;-69
2022/09/30 08:08:19;;;;;;;10.68;6.35;;;12.20;91.50;;;;;;4969554;28;20959;-70
2022/09/30 08:10:45;;;;;;;8.52;6.25;;;12.30;91.60;;;;;;4969317;28;20062;-70
2022/09/30 08:13:12;;;;;;;8.95;5.95;;;12.30;91.50;;;;;;4967175;28;20478;-69
2022/09/30 08:15:39;;;;;;;9.93;6.18;;;12.30;91.50;;;;;;4979223;28;20026;-69
2022/09/30 08:18:04;;;;;;;9.68;6.25;;;12.40;91.40;;;;;;4970799;28;20129;-69
2022/09/30 08:20:30;;;;;;;8.05;5.78;;;12.40;91.40;;;;;;4970963;28;20510;-72
2022/09/30 08:22:57;;;;;;;8.88;6.03;;;12.50;91.30;;;;;;4966897;28;20046;-73
2022/09/30 08:25:23;;;;;;;7.35;5.72;;;12.60;91.30;;;;;;4969659;28;20051;-73
2022/09/30 08:27:49;;;;;;;8.07;5.95;;;12.70;91.30;;;;;;4966745;28;20113;-83
2022/09/30 08:30:16;;;;;;;9.98;6.28;;;12.70;91.40;;;;;;4970513;28;20556;-76
2022/09/30 08:32:42;;;;;;;9.23;5.85;;;12.90;91.30;;;;;;4970175;28;20032;-78
2022/09/30 08:35:08;;;;;;;6.95;5.07;;;13.00;91.00;;;;;;4957531;28;20229;-78
2022/09/30 08:37:33;;;;;;;11.38;6.97;;;13.10;91.00;;;;;;4970399;28;20395;-78
2022/09/30 08:39:59;;;;;;;9.32;6.35;;;13.20;90.90;;;;;;4974163;28;20084;-72
2022/09/30 08:42:35;;;;;;;9.02;5.47;;;13.40;90.70;;;;;;4962762;28;20058;-75
2022/09/30 08:45:25;;;;;;;8.13;5.67;;;13.60;89.80;;;;;;4971896;28;20042;-74
2022/09/30 08:48:23;;;;;;;11.00;6.22;;;13.80;89.00;;;;;;4964932;28;20140;-74
2022/09/30 08:51:19;;;;;;;10.18;6.65;;;14.00;88.40;;;;;;4945553;28;20748;-73
2022/09/30 08:53:46;;;;;;;11.25;6.43;;;14.30;86.90;;;;;;4956423;28;20035;-74
2022/09/30 08:56:29;;;;;;;9.02;5.45;;;14.50;86.30;;;;;;4972918;28;20041;-75
2022/09/30 08:59:31;;;;;;;10.27;6.55;;;14.70;84.40;;;;;;4965235;28;20035;-75
2022/09/30 09:02:20;;;;;;;9.75;7.40;;;14.80;84.10;;;;;;4968867;28;20052;-75
2022/09/30 09:04:49;;;;;;;6.70;5.35;;;14.90;83.60;;;;;;4966360;28;20030;-76
2022/09/30 09:07:21;;;;;;;9.73;5.80;;;15.00;83.20;;;;;;4964478;28;20074;-75
2022/09/30 09:09:55;;;;;;;7.10;5.10;;;14.90;82.20;;;;;;4969204;28;20089;-76
2022/09/30 09:12:40;;;;;;;8.52;5.95;;;15.10;83.30;;;;;;4968530;28;20113;-76
2022/09/30 09:15:20;;;;;;;6.88;4.57;;;15.10;82.70;;;;;;4971599;28;20073;-76
2022/09/30 09:18:14;;;;;;;7.38;4.95;;;15.20;81.30;;;;;;4966156;28;20054;-78
2022/09/30 09:20:50;;;;;;;10.45;8.05;;;15.20;81.30;;;;;;4964160;28;20062;-75
2022/09/30 09:23:16;;;;;;;6.35;4.50;;;15.40;81.50;;;;;;4971895;28;20030;-75
2022/09/30 09:25:45;;;;;;;5.53;4.10;;;15.50;79.10;;;;;;4983203;28;20073;-76
2022/09/30 09:28:28;;;;;;;8.82;3.80;;;15.60;79.20;;;;;;4966157;28;20768;-76
2022/09/30 09:30:57;;;;;;;5.07;3.95;;;15.60;76.60;;;;;;4968116;28;20440;-73
2022/09/30 09:33:44;;;;;;;5.95;4.13;;;15.70;76.20;;;;;;4967197;28;20027;-72
2022/09/30 09:36:15;;;;;;;5.57;4.10;;;15.80;76.20;;;;;;4964758;28;20045;-73
2022/09/30 09:38:52;;;;;;;5.57;3.72;;;15.80;76.10;;;;;;4966339;28;20043;-72
2022/09/30 09:41:32;;;;;;;6.97;3.95;;;15.80;73.70;;;;;;4962968;28;20034;-72
2022/09/30 09:44:25;;;;;;;4.78;3.70;;;15.80;73.10;;;;;;4969295;28;20046;-72
2022/09/30 09:47:04;;;;;;;6.03;4.15;;;15.90;75.00;;;;;;4951648;28;20094;-73
2022/09/30 09:49:31;;;;;;;4.38;3.60;;;16.00;73.80;;;;;;4974177;28;20038;-76
2022/09/30 09:52:11;;;;;;;5.50;3.40;;;16.10;73.30;;;;;;4968526;28;20501;-78
2022/09/30 09:54:51;;;;;;;7.32;3.40;;;16.20;71.90;;;;;;4968201;28;20782;-77
2022/09/30 09:57:24;;;;;;;3.58;2.83;;;16.10;73.10;;;;;;4972668;28;20037;-71
2022/09/30 10:01:05;;;;;;;4.43;2.60;;;16.20;72.00;;;;;;4967116;28;20034;-76
2022/09/30 10:03:20;;;;;;;4.20;2.30;;;16.30;70.60;;;;;;4973479;28;20035;-75
2022/09/30 10:06:08;;;;;;;3.10;2.00;;;16.40;72.10;;;;;;4967443;28;20289;-75
2022/09/30 10:08:38;;;;;;;3.90;2.20;;;16.70;69.50;;;;;;4967581;28;20117;-75
2022/09/30 10:11:20;;;;;;;2.80;2.30;;;17.00;70.20;;;;;;4968509;28;20116;-74
2022/09/30 10:13:46;;;;;;;2.80;2.00;;;17.50;70.60;;;;;;4967145;28;20624;-74
2022/09/30 10:16:34;;;;;;;4.07;1.77;;;18.40;63.60;;;;;;4973099;28;20172;-82
2022/09/30 10:19:02;;;;;;;1.60;1.48;;;19.70;61.60;;;;;;4959346;28;20113;-73
2022/09/30 10:21:29;;;;;;;1.92;1.50;;;20.10;56.80;;;;;;4969295;28;20169;-75
2022/09/30 10:23:56;;;;;;;3.45;1.35;;;20.70;56.20;;;;;;4963941;28;20038;-75
2022/09/30 10:26:24;;;;;;;1.40;1.30;;;21.80;52.80;;;;;;4969816;28;20045;-75
2022/09/30 10:29:00;;;;;;;2.10;1.40;;;22.50;52.00;;;;;;4966139;28;20460;-75
2022/09/30 10:31:42;;;;;;;1.52;1.25;;;22.10;52.00;;;;;;4971696;28;20070;-75
2022/09/30 10:34:20;;;;;;;3.80;1.45;;;21.50;52.60;;;;;;4965908;28;20121;-75
2022/09/30 10:36:47;;;;;;;2.60;1.42;;;21.00;55.20;;;;;;4962989;28;20033;-76
2022/09/30 10:39:19;;;;;;;2.63;1.50;;;21.00;53.10;;;;;;4974835;28;20031;-76
2022/09/30 10:41:45;;;;;;;4.13;1.85;;;21.30;52.30;;;;;;4964284;28;20030;-76
2022/09/30 10:44:22;;;;;;;2.60;1.27;;;21.60;51.30;;;;;;4967961;28;20047;-76
2022/09/30 10:46:52;;;;;;;1.42;1.13;;;21.60;50.10;;;;;;4966549;28;20038;-75
2022/09/30 10:49:29;;;;;;;1.50;1.13;;;21.50;51.60;;;;;;4966377;28;20041;-73
2022/09/30 10:51:56;;;;;;;2.53;1.90;;;21.20;51.30;;;;;;4961433;28;20795;-75
2022/09/30 10:54:50;;;;;;;2.03;1.23;;;20.80;53.80;;;;;;4965309;28;20057;-72
2022/09/30 10:57:22;;;;;;;1.42;1.00;;;20.60;53.10;;;;;;4965137;28;20037;-73
2022/09/30 10:59:50;;;;;;;3.03;1.30;;;20.10;53.20;;;;;;4967380;28;20034;-74
2022/09/30 11:02:25;;;;;;;2.15;0.85;;;19.70;54.90;;;;;;4965518;28;20517;-74
2022/09/30 11:05:04;;;;;;;1.60;1.00;;;19.40;55.40;;;;;;4967329;28;20138;-74
2022/09/30 11:07:43;;;;;;;2.78;1.20;;;19.10;56.90;;;;;;4974317;28;20310;-72
2022/09/30 11:10:41;;;;;;;1.55;1.38;;;19.00;55.80;;;;;;4965292;28;20046;-74
2022/09/30 11:13:22;;;;;;;1.30;1.13;;;18.70;56.50;;;;;;4970346;28;20474;-74
2022/09/30 11:16:16;;;;;;;1.50;1.35;;;18.70;58.00;;;;;;4967841;28;20042;-74
2022/09/30 11:18:59;;;;;;;1.30;1.00;;;18.60;56.70;;;;;;4971964;28;20033;-75
2022/09/30 11:21:34;;;;;;;1.88;1.10;;;18.50;58.60;;;;;;4971574;28;20133;-74
2022/09/30 11:24:07;;;;;;;2.13;1.20;;;18.50;57.30;;;;;;4972194;28;20034;-74
2022/09/30 11:26:43;;;;;;;3.42;1.25;;;18.60;58.60;;;;;;4966874;28;20625;-74
2022/09/30 11:29:27;;;;;;;1.33;0.90;;;18.60;60.00;;;;;;4968082;28;20120;-75
2022/09/30 11:32:11;;;;;;;4.57;0.90;;;18.70;55.70;;;;;;4969895;28;20046;-74
2022/09/30 11:35:21;;;;;;;1.00;0.85;;;18.70;57.00;;;;;;4966846;28;20126;-68
2022/09/30 11:38:09;;;;;;;3.08;0.93;;;18.60;55.10;;;;;;4968291;28;20035;-73
2022/09/30 11:40:36;;;;;;;1.45;0.98;;;18.50;58.10;;;;;;4971208;28;20038;-73
2022/09/30 11:43:15;;;;;;;2.13;1.15;;;18.50;57.20;;;;;;4971064;28;20109;-74
2022/09/30 11:45:53;;;;;;;4.28;1.02;;;18.60;58.30;;;;;;4960022;28;20532;-68
2022/09/30 11:48:46;;;;;;;1.67;1.00;;;18.70;56.10;;;;;;4966805;28;20045;-68
2022/09/30 11:51:34;;;;;;;2.35;1.23;;;18.60;57.10;;;;;;4961739;28;20134;-74
2022/09/30 11:54:26;;;;;;;1.85;1.13;;;18.60;57.50;;;;;;4963233;28;20039;-72
2022/09/30 11:57:12;;;;;;;1.33;0.85;;;18.50;56.30;;;;;;4975719;28;20122;-80
2022/09/30 11:59:45;;;;;;;2.17;1.25;;;18.50;57.80;;;;;;4966088;28;20609;-72
2022/09/30 12:02:32;;;;;;;2.25;1.30;;;18.50;56.60;;;;;;4971178;28;20038;-72
2022/09/30 12:05:03;;;;;;;3.47;1.38;;;18.50;59.50;;;;;;4970121;28;20034;-72
2022/09/30 12:07:53;;;;;;;1.42;1.08;;;18.50;58.00;;;;;;4966528;28;20042;-72
2022/09/30 12:10:32;;;;;;;1.73;1.27;;;18.60;57.10;;;;;;4987426;28;20034;-71
2022/09/30 12:13:07;;;;;;;2.08;1.10;;;18.60;57.80;;;;;;4964167;28;20089;-79
2022/09/30 12:15:35;;;;;;;2.85;1.23;;;18.50;58.70;;;;;;4971503;28;20057;-78
2022/09/30 12:18:08;;;;;;;4.07;0.98;;;18.50;58.10;;;;;;4966859;28;20035;-74
2022/09/30 12:20:45;;;;;;;1.20;1.10;;;18.50;58.10;;;;;;4966131;28;20030;-73
2022/09/30 12:23:26;;;;;;;2.80;1.25;;;18.50;57.40;;;;;;4966040;28;20112;-73
2022/09/30 12:25:59;;;;;;;3.83;1.38;;;18.60;58.60;;;;;;4974760;28;20736;-74
2022/09/30 12:31:43;;;;;;;2.58;1.08;;;18.70;56.90;;;;;;4971202;28;20687;-73
2022/09/30 12:34:30;;;;;;;4.70;1.20;;;18.70;56.50;;;;;;4951991;28;20566;-72
2022/09/30 12:37:14;;;;;;;1.63;0.90;;;18.50;56.50;;;;;;4957335;28;20053;-73
2022/09/30 12:39:58;;;;;;;0.90;0.68;;;18.40;56.30;;;;;;4970105;28;20481;-72
2022/09/30 12:42:57;;;;;;;1.60;1.08;;;18.40;56.50;;;;;;4970160;28;20455;-72
2022/09/30 12:45:53;;;;;;;2.67;1.02;;;18.40;56.10;;;;;;4968822;28;20745;-72
2022/09/30 12:48:25;;;;;;;1.20;0.57;;;18.20;56.50;;;;;;4969736;28;20664;-72
2022/09/30 12:50:53;;;;;;;1.05;0.80;;;18.10;56.90;;;;;;4964953;28;20054;-72
2022/09/30 12:53:28;;;;;;;1.55;1.10;;;18.20;56.00;;;;;;4972041;28;20038;-72
2022/09/30 12:56:19;;;;;;;1.00;0.83;;;18.20;55.70;;;;;;4966125;28;20038;-72
2022/09/30 12:58:50;;;;;;;2.50;1.02;;;18.20;56.80;;;;;;4963581;28;20030;-72
2022/09/30 13:01:27;;;;;;;2.50;0.95;;;18.30;58.70;;;;;;4968901;28;20085;-72
2022/09/30 13:03:58;;;;;;;0.80;0.80;;;18.50;55.60;;;;;;4970501;28;20031;-72
2022/09/30 13:06:25;;;;;;;1.13;0.70;;;18.60;56.00;;;;;;4967916;28;20097;-72
2022/09/30 13:09:05;;;;;;;0.85;0.50;;;18.60;52.80;;;;;;4967358;28;20249;-72
2022/09/30 13:11:54;;;;;;;0.52;0.52;;;18.60;54.50;;;;;;4963376;28;20045;-72
2022/09/30 13:14:36;;;;;;;1.27;1.00;;;18.50;56.10;;;;;;4965502;28;20072;-72
2022/09/30 13:17:12;;;;;;;2.05;0.73;;;18.50;55.30;;;;;;4973128;28;20558;-72
2022/09/30 13:19:47;;;;;;;1.35;0.93;;;18.40;56.10;;;;;;4964350;28;20076;-72
2022/09/30 13:22:19;;;;;;;2.80;0.53;;;18.20;56.80;;;;;;4966605;28;20050;-72
2022/09/30 13:24:59;;;;;;;0.75;0.75;;;18.10;57.10;;;;;;4970813;28;20062;-70
2022/09/30 13:27:52;;;;;;;0.77;0.77;;;18.00;57.70;;;;;;4964813;28;20030;-71
2022/09/30 13:30:18;;;;;;;0.80;0.80;;;17.90;58.30;;;;;;4966830;28;20584;-73